createdAt,value
2022-10-24T00:01:25.606Z,100516.03
2022-10-24T00:03:53.343Z,100525.19
2022-10-24T00:06:22.165Z,100532.25
2022-10-24T00:08:50.644Z,100518.63
2022-10-24T00:11:24.051Z,100544.06
2022-10-24T00:13:52.629Z,100542.47
2022-10-24T00:16:20.364Z,100488.28
2022-10-24T00:18:48.753Z,100518.03
2022-10-24T00:21:16.814Z,100504.19
2022-10-24T00:23:44.786Z,100519.47
2022-10-24T00:26:13.935Z,100517.06
2022-10-24T00:28:41.775Z,100527.72
2022-10-24T00:31:15.052Z,100494.97
2022-10-24T00:33:44.055Z,100516.44
2022-10-24T00:36:17.545Z,100510.94
2022-10-24T00:38:45.437Z,100524.97
2022-10-24T00:41:23.087Z,100508.88
2022-10-24T00:43:51.987Z,100519.00
2022-10-24T00:46:20.726Z,100487.34
2022-10-24T00:48:55.142Z,100519.88
2022-10-24T00:51:27.817Z,100532.75
2022-10-24T00:54:02.649Z,100524.03
2022-10-24T00:56:37.193Z,100528.25
2022-10-24T00:59:07.564Z,100533.28
2022-10-24T01:01:36.163Z,100487.19
2022-10-24T01:04:04.497Z,100538.31
2022-10-24T01:06:41.104Z,100527.31
2022-10-24T01:09:45.918Z,100524.56
2022-10-24T01:12:20.453Z,100532.00
2022-10-24T01:15:09.805Z,100532.81
2022-10-24T01:17:55.099Z,100529.66
2022-10-24T01:20:37.881Z,100543.34
2022-10-24T01:23:29.054Z,100544.47
2022-10-24T01:26:09.215Z,100535.41
2022-10-24T01:28:44.812Z,100544.47
2022-10-24T01:31:29.736Z,100529.00
2022-10-24T01:34:04.722Z,100481.81
2022-10-24T01:36:43.747Z,100530.41
2022-10-24T01:39:16.887Z,100527.66
2022-10-24T01:41:46.236Z,100504.38
2022-10-24T01:44:22.945Z,100527.03
2022-10-24T01:46:56.360Z,100532.00
2022-10-24T01:49:29.142Z,100524.91
2022-10-24T01:52:01.581Z,100507.19
2022-10-24T01:54:31.530Z,100539.81
2022-10-24T01:56:59.314Z,100489.94
2022-10-24T01:59:29.876Z,100523.78
2022-10-24T02:02:06.634Z,100527.66
2022-10-24T02:04:35.550Z,100522.47
2022-10-24T02:07:07.674Z,100537.34
2022-10-24T02:09:39.350Z,100508.78
2022-10-24T02:12:10.636Z,100507.34
2022-10-24T02:14:45.785Z,100501.50
2022-10-24T02:17:13.473Z,100457.09
2022-10-24T02:19:41.688Z,100441.13
2022-10-24T02:22:12.264Z,100502.44
2022-10-24T02:25:00.509Z,100511.81
2022-10-24T02:27:41.803Z,100519.25
2022-10-24T02:30:14.349Z,100520.06
2022-10-24T02:32:45.969Z,100522.81
2022-10-24T02:35:16.494Z,100492.69
2022-10-24T02:37:49.487Z,100508.31
2022-10-24T02:40:19.519Z,100490.28
2022-10-24T02:42:51.460Z,100505.38
2022-10-24T02:45:20.984Z,100462.91
2022-10-24T02:47:51.514Z,100506.53
2022-10-24T02:50:19.102Z,100480.97
2022-10-24T02:52:47.365Z,100463.03
2022-10-24T02:55:15.013Z,100509.28
2022-10-24T02:57:42.730Z,100497.78
2022-10-24T03:00:13.406Z,100441.00
2022-10-24T03:02:41.124Z,100456.09
2022-10-24T03:05:09.142Z,100468.31
2022-10-24T03:07:36.776Z,100475.56
2022-10-24T03:10:04.847Z,100407.09
2022-10-24T03:12:32.594Z,100466.47
2022-10-24T03:15:00.103Z,100454.56
2022-10-24T03:17:28.130Z,100393.91
2022-10-24T03:19:55.799Z,100489.56
2022-10-24T03:22:25.443Z,100461.19
2022-10-24T03:24:56.123Z,100472.84
2022-10-24T03:27:25.832Z,100493.94
2022-10-24T03:29:55.628Z,100501.03
2022-10-24T03:32:23.693Z,100497.16
2022-10-24T03:34:51.580Z,100438.25
2022-10-24T03:37:19.392Z,100426.94
2022-10-24T03:39:47.275Z,100452.88
2022-10-24T03:42:15.030Z,100504.94
2022-10-24T03:44:42.831Z,100502.19
2022-10-24T03:47:10.493Z,100450.78
2022-10-24T03:49:38.253Z,100418.91
2022-10-24T03:52:06.178Z,100481.56
2022-10-24T03:54:34.793Z,100499.16
2022-10-24T03:57:02.741Z,100497.78
2022-10-24T03:59:31.214Z,100505.28
2022-10-24T04:02:01.549Z,100479.13
2022-10-24T04:04:29.928Z,100495.88
2022-10-24T04:06:58.697Z,100533.72
2022-10-24T04:09:29.457Z,100462.03
2022-10-24T04:11:57.137Z,100502.81
2022-10-24T04:14:24.830Z,100521.78
2022-10-24T04:16:52.438Z,100486.13
2022-10-24T04:19:20.194Z,100487.19
2022-10-24T04:21:48.793Z,100397.44
2022-10-24T04:24:17.058Z,100458.97
2022-10-24T04:26:45.080Z,100463.78
2022-10-24T04:29:12.917Z,100474.28
2022-10-24T04:31:41.545Z,100486.34
2022-10-24T04:34:09.249Z,100486.50
2022-10-24T04:36:38.159Z,100521.78
2022-10-24T04:39:06.640Z,100522.59
2022-10-24T04:41:34.253Z,100472.50
2022-10-24T04:44:01.923Z,100527.00
2022-10-24T04:46:37.302Z,100522.59
2022-10-24T04:49:05.818Z,100509.16
2022-10-24T04:51:33.477Z,100521.03
2022-10-24T04:54:01.184Z,100546.34
2022-10-24T04:56:28.767Z,100516.00
2022-10-24T04:58:56.510Z,100547.94
2022-10-24T05:01:25.582Z,100506.06
2022-10-24T05:03:53.449Z,100484.09
2022-10-24T05:06:22.126Z,100493.13
2022-10-24T05:08:49.859Z,100486.56
2022-10-24T05:11:17.424Z,100512.94
2022-10-24T05:13:45.163Z,100528.03
2022-10-24T05:16:12.853Z,100484.84
2022-10-24T05:18:40.618Z,100466.38
2022-10-24T05:21:08.209Z,100535.47
2022-10-24T05:23:35.745Z,100502.47
2022-10-24T05:26:03.608Z,100485.28
2022-10-24T05:28:31.346Z,100486.56
2022-10-24T05:30:59.371Z,100537.63
2022-10-24T05:33:27.009Z,100544.72
2022-10-24T05:35:54.757Z,100547.66
2022-10-24T05:38:22.985Z,100543.47
2022-10-24T05:40:51.764Z,100552.56
2022-10-24T05:43:19.590Z,100531.31
2022-10-24T05:48:16.964Z,100516.66
2022-10-24T05:50:44.511Z,100557.97
2022-10-24T05:53:13.209Z,100564.91
2022-10-24T05:55:41.280Z,100518.59
2022-10-24T05:58:08.892Z,100545.16
2022-10-24T06:00:36.727Z,100545.28
2022-10-24T06:03:04.435Z,100524.81
2022-10-24T06:05:32.180Z,100560.41
2022-10-24T06:08:00.160Z,100564.13
2022-10-24T06:10:27.898Z,100555.91
2022-10-24T06:12:57.194Z,100560.25
2022-10-24T06:15:25.268Z,100503.84
2022-10-24T06:17:53.103Z,100543.75
2022-10-24T06:20:20.829Z,100503.66
2022-10-24T06:22:50.763Z,100546.16
2022-10-24T06:25:18.602Z,100547.00
2022-10-24T06:27:46.166Z,100517.06
2022-10-24T06:30:13.789Z,100565.22
2022-10-24T06:32:44.396Z,100564.75
2022-10-24T06:35:14.854Z,100563.97
2022-10-24T06:37:47.133Z,100564.81
2022-10-24T06:40:17.716Z,100563.00
2022-10-24T06:42:45.638Z,100564.94
2022-10-24T06:45:14.474Z,100570.44
2022-10-24T06:47:42.518Z,100559.66
2022-10-24T06:50:10.711Z,100543.53
2022-10-24T06:52:38.287Z,100587.69
2022-10-24T06:55:06.207Z,100573.69
2022-10-24T06:57:33.841Z,100562.66
2022-10-24T07:00:01.515Z,100586.03
2022-10-24T07:02:31.018Z,100540.78
2022-10-24T07:04:58.966Z,100595.06
2022-10-24T07:07:26.916Z,100546.56
2022-10-24T07:09:57.143Z,100554.81
2022-10-24T07:12:26.228Z,100599.31
2022-10-24T07:14:53.942Z,100598.38
2022-10-24T07:17:21.827Z,100515.97
2022-10-24T07:19:54.304Z,100614.81
2022-10-24T07:22:21.937Z,100606.75
2022-10-24T07:24:54.421Z,100619.63
2022-10-24T07:27:23.764Z,100524.56
2022-10-24T07:29:51.832Z,100616.94
2022-10-24T07:32:20.491Z,100622.13
2022-10-24T07:34:48.576Z,100629.06
2022-10-24T07:37:17.336Z,100646.31
2022-10-24T07:39:46.718Z,100618.47
2022-10-24T07:42:15.541Z,100602.19
2022-10-24T07:44:43.284Z,100609.91
2022-10-24T07:47:12.247Z,100604.72
2022-10-24T07:49:39.906Z,100592.31
2022-10-24T07:52:07.399Z,100620.53
2022-10-24T07:54:37.314Z,100656.19
2022-10-24T07:57:05.894Z,100626.69
2022-10-24T07:59:42.603Z,100580.41
2022-10-24T08:02:13.041Z,100632.66
2022-10-24T08:04:41.084Z,100674.44
2022-10-24T08:07:13.672Z,100662.34
2022-10-24T08:09:48.366Z,100679.94
2022-10-24T08:12:16.050Z,100638.19
2022-10-24T08:14:44.128Z,100664.34
2022-10-24T08:17:11.824Z,100612.69
2022-10-24T08:19:43.891Z,100674.28
2022-10-24T08:22:12.411Z,100638.34
2022-10-24T08:24:40.392Z,100681.38
2022-10-24T08:27:08.216Z,100684.13
2022-10-24T08:29:36.172Z,100684.47
2022-10-24T08:32:04.560Z,100670.63
2022-10-24T08:34:32.572Z,100636.75
2022-10-24T08:37:00.606Z,100659.00
2022-10-24T08:39:28.276Z,100672.72
2022-10-24T08:42:04.394Z,100695.63
2022-10-24T08:44:36.664Z,100699.31
2022-10-24T08:47:19.065Z,100660.63
2022-10-24T08:50:10.927Z,100697.56
2022-10-24T08:53:03.029Z,100667.84
2022-10-24T08:55:50.627Z,100662.84
2022-10-24T08:58:38.239Z,100691.88
2022-10-24T09:01:14.834Z,100679.19
2022-10-24T09:03:56.095Z,100707.22
2022-10-24T09:06:27.156Z,100713.88
2022-10-24T09:09:19.919Z,100719.72
2022-10-24T09:11:48.811Z,100720.03
2022-10-24T09:14:19.915Z,100719.53
2022-10-24T09:17:20.205Z,100723.13
2022-10-24T09:20:19.925Z,100717.47
2022-10-24T09:22:48.678Z,100653.44
2022-10-24T09:25:20.715Z,100668.94
2022-10-24T09:27:49.033Z,100682.47
2022-10-24T09:30:21.092Z,100722.16
2022-10-24T09:32:49.029Z,100712.31
2022-10-24T09:35:23.128Z,100710.03
2022-10-24T09:37:56.663Z,100715.19
2022-10-24T09:40:31.802Z,100713.75
2022-10-24T09:43:01.936Z,100683.06
2022-10-24T09:45:42.051Z,100700.16
2022-10-24T09:48:47.173Z,100708.25
2022-10-24T09:51:47.925Z,100710.19
2022-10-24T09:54:18.970Z,100714.53
2022-10-24T09:56:54.208Z,100683.19
2022-10-24T09:59:37.620Z,100704.00
2022-10-24T10:02:12.988Z,100709.50
2022-10-24T10:04:41.933Z,100674.97
2022-10-24T10:07:21.083Z,100709.66
2022-10-24T10:09:57.440Z,100715.97
2022-10-24T10:12:41.801Z,100705.78
2022-10-24T10:15:27.027Z,100702.88
2022-10-24T10:17:58.545Z,100667.03
2022-10-24T10:20:41.395Z,100709.34
2022-10-24T10:23:32.054Z,100672.16
2022-10-24T10:26:14.724Z,100711.41
2022-10-24T10:29:26.862Z,100707.38
2022-10-24T10:32:03.799Z,100712.22
2022-10-24T10:34:37.416Z,100698.13
2022-10-24T10:37:13.818Z,100696.69
2022-10-24T10:39:56.703Z,100694.72
2022-10-24T10:42:33.182Z,100692.09
2022-10-24T10:45:10.762Z,100696.47
2022-10-24T10:47:58.702Z,100687.88
2022-10-24T10:50:36.514Z,100684.03
2022-10-24T10:53:27.122Z,100681.72
2022-10-24T10:56:17.624Z,100684.47
2022-10-24T10:58:51.138Z,100682.19
2022-10-24T11:01:30.937Z,100678.31
2022-10-24T11:04:32.604Z,100677.66
2022-10-24T11:07:26.563Z,100673.75
2022-10-24T11:09:58.996Z,100650.50
2022-10-24T11:12:38.566Z,100663.56
2022-10-24T11:17:51.904Z,100662.88
2022-10-24T11:20:27.038Z,100656.59
2022-10-24T11:23:01.263Z,100659.78
2022-10-24T11:25:35.183Z,100598.84
2022-10-24T11:28:43.435Z,100642.97
2022-10-24T11:31:25.581Z,100585.09
2022-10-24T11:34:17.566Z,100629.22
2022-10-24T11:37:06.808Z,100633.25
2022-10-24T11:39:56.928Z,100617.66
2022-10-24T11:42:30.453Z,100629.16
2022-10-24T11:45:16.343Z,100625.38
2022-10-24T11:48:13.485Z,100622.28
2022-10-24T11:50:48.345Z,100614.03
2022-10-24T11:53:31.697Z,100614.84
2022-10-24T11:56:12.074Z,100618.06
2022-10-24T11:58:52.872Z,100555.41
2022-10-24T12:01:47.534Z,100616.94
2022-10-24T12:04:40.250Z,100612.56
2022-10-24T12:07:38.499Z,100573.25
2022-10-24T12:10:28.110Z,100603.19
2022-10-24T12:13:27.265Z,100598.47
2022-10-24T12:16:19.147Z,100594.56
2022-10-24T12:18:49.649Z,100591.81
2022-10-24T12:21:26.312Z,100583.22
2022-10-24T12:23:55.885Z,100591.13
2022-10-24T12:26:31.941Z,100585.19
2022-10-24T12:29:06.755Z,100545.19
2022-10-24T12:31:37.753Z,100573.25
2022-10-24T12:34:22.990Z,100580.66
2022-10-24T12:37:30.293Z,100572.41
2022-10-24T12:39:58.829Z,100514.88
2022-10-24T12:42:26.363Z,100564.59
2022-10-24T12:45:01.299Z,100560.69
2022-10-24T12:47:42.597Z,100566.66
2022-10-24T12:50:36.684Z,100553.69
2022-10-24T12:53:17.745Z,100549.00
2022-10-24T12:55:45.447Z,100542.38
2022-10-24T12:58:35.966Z,100535.72
2022-10-24T13:01:10.230Z,100538.47
2022-10-24T13:04:04.892Z,100501.22
2022-10-24T13:06:50.767Z,100513.00
2022-10-24T13:09:42.332Z,100501.44
2022-10-24T13:12:33.047Z,100523.41
2022-10-24T13:15:03.648Z,100530.88
2022-10-24T13:17:51.100Z,100525.38
2022-10-24T13:20:25.101Z,100523.78
2022-10-24T13:23:02.770Z,100514.88
2022-10-24T13:25:35.529Z,100515.22
2022-10-24T13:28:24.210Z,100520.34
2022-10-24T13:31:17.422Z,100520.34
2022-10-24T13:33:46.390Z,100503.75
2022-10-24T13:36:27.796Z,100512.13
2022-10-24T13:39:03.431Z,100514.16
2022-10-24T13:41:42.963Z,100496.19
2022-10-24T13:44:25.878Z,100524.47
2022-10-24T13:47:01.142Z,100505.78
2022-10-24T13:49:39.929Z,100510.16
2022-10-24T13:52:17.221Z,100527.22
2022-10-24T13:54:51.289Z,100484.69
2022-10-24T13:57:30.576Z,100523.34
2022-10-24T14:00:01.296Z,100503.88
2022-10-24T14:02:41.850Z,100526.44
2022-10-24T14:05:20.972Z,100517.38
2022-10-24T14:07:49.817Z,100499.00
2022-10-24T14:10:19.904Z,100476.78
2022-10-24T14:12:52.087Z,100471.72
2022-10-24T14:15:22.652Z,100508.41
2022-10-24T14:18:02.566Z,100519.66
2022-10-24T14:20:33.415Z,100520.00
2022-10-24T14:23:02.079Z,100477.13
2022-10-24T14:25:38.125Z,100432.44
2022-10-24T14:28:17.547Z,100519.22
2022-10-24T14:31:00.228Z,100421.53
2022-10-24T14:33:30.270Z,100519.56
2022-10-24T14:36:02.061Z,100519.88
2022-10-24T14:38:30.954Z,100524.22
2022-10-24T14:41:09.104Z,100522.63
2022-10-24T14:43:42.780Z,100509.72
2022-10-24T14:46:13.577Z,100521.81
2022-10-24T14:48:46.740Z,100491.09
2022-10-24T14:51:22.288Z,100507.50
2022-10-24T14:53:51.037Z,100510.88
2022-10-24T14:56:28.837Z,100504.44
2022-10-24T14:58:58.485Z,100487.88
2022-10-24T15:01:28.118Z,100526.97
2022-10-24T15:03:58.635Z,100517.63
2022-10-24T15:06:43.338Z,100523.31
2022-10-24T15:09:10.951Z,100542.38
2022-10-24T15:11:44.532Z,100538.13
2022-10-24T15:14:37.191Z,100528.38
2022-10-24T15:17:17.181Z,100532.28
2022-10-24T15:19:47.005Z,100469.50
2022-10-24T15:22:25.300Z,100521.00
2022-10-24T15:24:55.251Z,100528.63
2022-10-24T15:27:30.728Z,100520.56
2022-10-24T15:29:58.544Z,100527.47
2022-10-24T15:32:26.649Z,100516.19
2022-10-24T15:34:55.405Z,100528.28
2022-10-24T15:37:25.362Z,100515.13
2022-10-24T15:39:53.961Z,100493.28
2022-10-24T15:42:22.666Z,100513.09
2022-10-24T15:44:50.571Z,100513.78
2022-10-24T15:47:18.257Z,100490.91
2022-10-24T15:49:46.152Z,100545.50
2022-10-24T15:52:16.447Z,100520.19
2022-10-24T15:54:44.269Z,100555.25
2022-10-24T15:57:13.275Z,100548.69
2022-10-24T15:59:40.969Z,100507.31
2022-10-24T16:02:17.929Z,100502.78
2022-10-24T16:04:45.798Z,100519.09
2022-10-24T16:07:14.022Z,100548.88
2022-10-24T16:09:41.913Z,100545.19
2022-10-24T16:12:12.595Z,100570.00
2022-10-24T16:14:40.351Z,100511.28
2022-10-24T16:17:07.995Z,100496.09
2022-10-24T16:19:35.568Z,100529.91
2022-10-24T16:22:03.538Z,100537.81
2022-10-24T16:24:31.310Z,100573.63
2022-10-24T16:26:58.942Z,100572.53
2022-10-24T16:29:26.665Z,100523.34
2022-10-24T16:31:54.380Z,100561.81
2022-10-24T16:34:23.570Z,100569.28
2022-10-24T16:36:55.284Z,100553.66
2022-10-24T16:39:24.204Z,100519.06
2022-10-24T16:41:56.099Z,100572.84
2022-10-24T16:44:23.668Z,100530.97
2022-10-24T16:46:54.377Z,100509.75
2022-10-24T16:49:22.198Z,100572.03
2022-10-24T16:51:49.884Z,100534.41
2022-10-24T16:54:19.231Z,100553.59
2022-10-24T16:56:53.301Z,100565.19
2022-10-24T16:59:21.710Z,100538.63
2022-10-24T17:01:50.048Z,100588.41
2022-10-24T17:04:18.023Z,100595.06
2022-10-24T17:06:45.955Z,100570.44
2022-10-24T17:09:14.612Z,100574.72
2022-10-24T17:11:46.496Z,100571.91
2022-10-24T17:14:14.582Z,100585.25
2022-10-24T17:16:43.903Z,100536.47
2022-10-24T17:19:16.294Z,100590.09
2022-10-24T17:21:47.677Z,100596.75
2022-10-24T17:24:18.141Z,100596.75
2022-10-24T17:26:47.194Z,100565.03
2022-10-24T17:29:35.223Z,100593.09
2022-10-24T17:32:02.915Z,100633.66
2022-10-24T17:34:32.779Z,100625.84
2022-10-24T17:37:20.287Z,100634.22
2022-10-24T17:39:57.354Z,100618.47
2022-10-24T17:42:28.144Z,100632.69
2022-10-24T17:44:55.878Z,100632.34
2022-10-24T17:47:23.763Z,100658.47
2022-10-24T17:49:51.500Z,100604.63
2022-10-24T17:52:23.317Z,100654.56
2022-10-24T17:54:51.231Z,100554.81
2022-10-24T17:57:19.850Z,100651.06
2022-10-24T17:59:47.650Z,100652.69
2022-10-24T18:02:15.469Z,100656.59
2022-10-24T18:04:45.586Z,100647.88
2022-10-24T18:07:13.354Z,100615.03
2022-10-24T18:09:41.240Z,100637.44
2022-10-24T18:12:10.058Z,100580.19
2022-10-24T18:14:37.962Z,100677.09
2022-10-24T18:17:05.711Z,100643.75
2022-10-24T18:19:34.966Z,100652.97
2022-10-24T18:22:03.112Z,100671.19
2022-10-24T18:24:30.791Z,100625.41
2022-10-24T18:26:58.609Z,100666.38
2022-10-24T18:29:26.551Z,100632.84
2022-10-24T18:31:54.431Z,100621.59
2022-10-24T18:34:22.053Z,100652.06
2022-10-24T18:36:49.769Z,100614.59
2022-10-24T18:39:17.428Z,100668.84
2022-10-24T18:42:02.326Z,100688.31
2022-10-24T18:44:38.401Z,100686.38
2022-10-24T18:47:08.228Z,100686.72
2022-10-24T18:49:36.093Z,100670.31
2022-10-24T18:52:10.164Z,100705.47
2022-10-24T18:54:51.327Z,100713.41
2022-10-24T18:57:26.230Z,100716.16
2022-10-24T18:59:55.035Z,100714.00
2022-10-24T19:02:22.830Z,100716.25
2022-10-24T19:05:06.707Z,100695.09
2022-10-24T19:07:37.950Z,100724.78
2022-10-24T19:10:08.220Z,100690.28
2022-10-24T19:12:36.004Z,100670.44
2022-10-24T19:15:04.125Z,100676.88
2022-10-24T19:17:35.480Z,100720.59
2022-10-24T19:20:03.607Z,100710.00
2022-10-24T19:22:31.557Z,100706.28
2022-10-24T19:24:59.541Z,100708.44
2022-10-24T19:27:28.290Z,100742.34
2022-10-24T19:29:56.344Z,100681.88
2022-10-24T19:32:24.088Z,100698.78
2022-10-24T19:34:52.537Z,100694.91
2022-10-24T19:37:20.229Z,100710.09
2022-10-24T19:39:48.545Z,100738.78
2022-10-24T19:42:16.311Z,100691.41
2022-10-24T19:47:16.324Z,100727.22
2022-10-24T19:49:44.007Z,100711.69
2022-10-24T19:52:11.774Z,100733.31
2022-10-24T19:54:39.479Z,100711.28
2022-10-24T19:57:07.063Z,100702.41
2022-10-24T19:59:36.125Z,100742.25
2022-10-24T20:02:05.343Z,100752.44
2022-10-24T20:04:33.152Z,100696.91
2022-10-24T20:07:00.743Z,100738.72
2022-10-24T20:09:28.414Z,100752.09
2022-10-24T20:11:56.372Z,100771.84
2022-10-24T20:14:24.701Z,100753.72
2022-10-24T20:16:52.515Z,100760.03
2022-10-24T20:19:22.824Z,100705.97
2022-10-24T20:21:50.649Z,100705.97
2022-10-24T20:24:18.435Z,100719.22
2022-10-24T20:26:46.406Z,100734.09
2022-10-24T20:29:15.688Z,100752.97
2022-10-24T20:31:47.170Z,100700.84
2022-10-24T20:34:15.813Z,100744.41
2022-10-24T20:36:47.260Z,100767.47
2022-10-24T20:39:16.331Z,100763.59
2022-10-24T20:41:44.181Z,100705.50
2022-10-24T20:44:12.013Z,100724.06
2022-10-24T20:46:39.814Z,100752.63
2022-10-24T20:49:07.624Z,100722.78
2022-10-24T20:51:35.704Z,100750.19
2022-10-24T20:54:07.004Z,100768.63
2022-10-24T20:56:39.876Z,100749.09
2022-10-24T20:59:12.228Z,100744.13
2022-10-24T21:01:40.106Z,100741.84
2022-10-24T21:04:09.199Z,100792.91
2022-10-24T21:06:37.668Z,100733.31
2022-10-24T21:09:06.910Z,100764.63
2022-10-24T21:11:36.105Z,100723.13
2022-10-24T21:14:06.978Z,100785.13
2022-10-24T21:16:35.327Z,100792.09
2022-10-24T21:19:04.195Z,100756.59
2022-10-24T21:21:32.170Z,100770.63
2022-10-24T21:24:05.754Z,100785.31
2022-10-24T21:26:38.510Z,100804.06
2022-10-24T21:29:27.849Z,100792.31
2022-10-24T21:31:55.885Z,100756.91
2022-10-24T21:34:23.610Z,100774.69
2022-10-24T21:36:51.694Z,100744.66
2022-10-24T21:39:19.516Z,100781.00
2022-10-24T21:41:47.265Z,100750.81
2022-10-24T21:44:15.155Z,100795.84
2022-10-24T21:46:43.501Z,100739.97
2022-10-24T21:49:11.384Z,100792.31
2022-10-24T21:51:41.396Z,100787.94
2022-10-24T21:54:24.874Z,100776.47
2022-10-24T21:56:52.772Z,100790.53
2022-10-24T21:59:21.481Z,100783.91
2022-10-24T22:01:51.445Z,100790.22
2022-10-24T22:04:19.771Z,100757.25
2022-10-24T22:06:47.819Z,100797.66
2022-10-24T22:09:18.601Z,100748.06
2022-10-24T22:11:46.789Z,100765.00
2022-10-24T22:14:16.495Z,100785.22
2022-10-24T22:16:44.707Z,100799.56
2022-10-24T22:19:13.703Z,100806.38
2022-10-24T22:21:44.421Z,100795.88
2022-10-24T22:24:15.417Z,100797.03
2022-10-24T22:26:43.901Z,100808.66
2022-10-24T22:29:19.172Z,100767.44
2022-10-24T22:31:48.085Z,100766.00
2022-10-24T22:34:18.900Z,100810.56
2022-10-24T22:37:05.535Z,100804.78
2022-10-24T22:39:33.570Z,100811.09
2022-10-24T22:42:01.364Z,100763.53
2022-10-24T22:44:29.243Z,100750.94
2022-10-24T22:47:12.021Z,100805.56
2022-10-24T22:49:39.529Z,100799.28
2022-10-24T22:52:11.414Z,100756.66
2022-10-24T22:54:39.581Z,100781.34
2022-10-24T22:57:07.852Z,100804.78
2022-10-24T22:59:35.772Z,100784.41
2022-10-24T23:02:32.029Z,100800.72
2022-10-24T23:05:11.390Z,100796.81
2022-10-24T23:07:41.942Z,100799.09
2022-10-24T23:10:13.953Z,100769.34
2022-10-24T23:12:41.848Z,100763.38
2022-10-24T23:15:13.582Z,100757.13
2022-10-24T23:17:41.780Z,100788.94
2022-10-24T23:20:27.570Z,100761.81
2022-10-24T23:23:09.107Z,100798.16
2022-10-24T23:25:52.725Z,100762.47
2022-10-24T23:28:42.261Z,100803.66
2022-10-24T23:31:10.207Z,100716.94
2022-10-24T23:33:38.277Z,100792.66
2022-10-24T23:36:06.387Z,100786.81
2022-10-24T23:38:34.368Z,100780.03
2022-10-24T23:41:02.374Z,100762.75
2022-10-24T23:43:30.378Z,100790.06
2022-10-24T23:46:02.291Z,100715.78
2022-10-24T23:49:02.455Z,100790.72
2022-10-24T23:52:00.697Z,100796.03
2022-10-24T23:54:31.890Z,100785.06
2022-10-24T23:57:00.299Z,100750.19
2022-10-24T23:59:28.574Z,100768.28
